sensor_id;sensor_type;location;lat;lon;timestamp;P1;durP1;ratioP1;P2;durP2;ratioP2
23588;SDS011;11972;48.078;11.876;2023-02-15T00:03:43;13.85;;;7.00;;
23588;SDS011;11972;48.078;11.876;2023-02-15T00:07:43;11.45;;;7.38;;
23588;SDS011;11972;48.078;11.876;2023-02-15T00:11:43;14.35;;;7.40;;
23588;SDS011;11972;48.078;11.876;2023-02-15T00:15:49;35.60;;;8.10;;
23588;SDS011;11972;48.078;11.876;2023-02-15T00:19:50;21.35;;;7.32;;
23588;SDS011;11972;48.078;11.876;2023-02-15T00:23:51;28.95;;;7.70;;
23588;SDS011;11972;48.078;11.876;2023-02-15T00:27:51;32.28;;;8.25;;
23588;SDS011;11972;48.078;11.876;2023-02-15T00:31:52;23.58;;;7.85;;
23588;SDS011;11972;48.078;11.876;2023-02-15T00:35:55;21.25;;;7.40;;
23588;SDS011;11972;48.078;11.876;2023-02-15T00:39:57;15.93;;;8.52;;
23588;SDS011;11972;48.078;11.876;2023-02-15T00:43:57;17.80;;;7.75;;
23588;SDS011;11972;48.078;11.876;2023-02-15T00:47:57;11.45;;;7.82;;
23588;SDS011;11972;48.078;11.876;2023-02-15T00:51:58;13.85;;;8.05;;
23588;SDS011;11972;48.078;11.876;2023-02-15T00:55:58;13.93;;;7.85;;
23588;SDS011;11972;48.078;11.876;2023-02-15T00:59:58;20.48;;;8.65;;
23588;SDS011;11972;48.078;11.876;2023-02-15T01:03:59;9.57;;;7.90;;
23588;SDS011;11972;48.078;11.876;2023-02-15T01:07:59;15.07;;;8.85;;
23588;SDS011;11972;48.078;11.876;2023-02-15T01:12:00;11.25;;;8.45;;
23588;SDS011;11972;48.078;11.876;2023-02-15T01:16:00;11.70;;;8.25;;
23588;SDS011;11972;48.078;11.876;2023-02-15T01:20:01;15.48;;;9.48;;
23588;SDS011;11972;48.078;11.876;2023-02-15T01:24:01;13.20;;;8.73;;
23588;SDS011;11972;48.078;11.876;2023-02-15T01:28:02;15.13;;;9.25;;
23588;SDS011;11972;48.078;11.876;2023-02-15T01:32:02;20.75;;;8.90;;
23588;SDS011;11972;48.078;11.876;2023-02-15T01:36:03;15.13;;;9.23;;
23588;SDS011;11972;48.078;11.876;2023-02-15T01:40:05;18.75;;;9.07;;
23588;SDS011;11972;48.078;11.876;2023-02-15T01:48:50;12.05;;;9.15;;
23588;SDS011;11972;48.078;11.876;2023-02-15T01:57:12;15.32;;;9.50;;
23588;SDS011;11972;48.078;11.876;2023-02-15T02:01:16;11.27;;;8.98;;
23588;SDS011;11972;48.078;11.876;2023-02-15T02:05:18;11.52;;;8.60;;
23588;SDS011;11972;48.078;11.876;2023-02-15T02:09:19;15.55;;;9.10;;
23588;SDS011;11972;48.078;11.876;2023-02-15T02:13:19;18.20;;;9.75;;
23588;SDS011;11972;48.078;11.876;2023-02-15T02:34:33;16.00;;;10.38;;
23588;SDS011;11972;48.078;11.876;2023-02-15T02:47:08;16.20;;;10.60;;
23588;SDS011;11972;48.078;11.876;2023-02-15T02:51:09;16.48;;;10.80;;
23588;SDS011;11972;48.078;11.876;2023-02-15T02:55:17;14.40;;;11.15;;
23588;SDS011;11972;48.078;11.876;2023-02-15T02:59:25;17.67;;;10.25;;
23588;SDS011;11972;48.078;11.876;2023-02-15T03:03:37;14.00;;;10.82;;
23588;SDS011;11972;48.078;11.876;2023-02-15T03:07:41;17.98;;;11.18;;
23588;SDS011;11972;48.078;11.876;2023-02-15T03:11:43;16.27;;;10.98;;
23588;SDS011;11972;48.078;11.876;2023-02-15T03:15:44;19.52;;;10.60;;
23588;SDS011;11972;48.078;11.876;2023-02-15T03:20:14;38.42;;;11.73;;
23588;SDS011;11972;48.078;11.876;2023-02-15T03:24:20;30.35;;;11.23;;
23588;SDS011;11972;48.078;11.876;2023-02-15T03:32:55;20.15;;;10.65;;
23588;SDS011;11972;48.078;11.876;2023-02-15T03:36:59;23.35;;;10.60;;
23588;SDS011;11972;48.078;11.876;2023-02-15T03:41:05;18.83;;;10.60;;
23588;SDS011;11972;48.078;11.876;2023-02-15T03:45:11;16.80;;;10.63;;
23588;SDS011;11972;48.078;11.876;2023-02-15T03:49:20;16.50;;;10.70;;
23588;SDS011;11972;48.078;11.876;2023-02-15T03:53:25;18.90;;;10.38;;
23588;SDS011;11972;48.078;11.876;2023-02-15T03:57:26;40.05;;;11.70;;
23588;SDS011;11972;48.078;11.876;2023-02-15T04:06:22;70.45;;;12.10;;
23588;SDS011;11972;48.078;11.876;2023-02-15T04:10:23;28.67;;;11.02;;
23588;SDS011;11972;48.078;11.876;2023-02-15T04:14:42;130.27;;;11.70;;
23588;SDS011;11972;48.078;11.876;2023-02-15T04:19:01;21.98;;;11.13;;
23588;SDS011;11972;48.078;11.876;2023-02-15T04:27:40;24.52;;;10.23;;
23588;SDS011;11972;48.078;11.876;2023-02-15T04:31:42;18.65;;;11.02;;
23588;SDS011;11972;48.078;11.876;2023-02-15T04:35:43;17.33;;;10.38;;
23588;SDS011;11972;48.078;11.876;2023-02-15T04:39:44;24.50;;;11.02;;
23588;SDS011;11972;48.078;11.876;2023-02-15T04:43:45;94.68;;;12.50;;
23588;SDS011;11972;48.078;11.876;2023-02-15T04:47:45;97.90;;;11.55;;
23588;SDS011;11972;48.078;11.876;2023-02-15T04:51:45;73.82;;;10.45;;
23588;SDS011;11972;48.078;11.876;2023-02-15T04:55:46;47.33;;;9.65;;
23588;SDS011;11972;48.078;11.876;2023-02-15T04:59:46;87.75;;;10.77;;
23588;SDS011;11972;48.078;11.876;2023-02-15T05:03:46;129.45;;;12.80;;
23588;SDS011;11972;48.078;11.876;2023-02-15T05:07:47;24.98;;;10.23;;
23588;SDS011;11972;48.078;11.876;2023-02-15T05:11:47;78.63;;;10.52;;
23588;SDS011;11972;48.078;11.876;2023-02-15T05:15:48;30.70;;;9.40;;
23588;SDS011;11972;48.078;11.876;2023-02-15T05:19:49;26.45;;;10.07;;
23588;SDS011;11972;48.078;11.876;2023-02-15T05:23:49;60.10;;;10.75;;
23588;SDS011;11972;48.078;11.876;2023-02-15T05:27:49;53.78;;;10.38;;
23588;SDS011;11972;48.078;11.876;2023-02-15T05:32:08;43.45;;;11.82;;
23588;SDS011;11972;48.078;11.876;2023-02-15T05:36:10;74.70;;;10.65;;
23588;SDS011;11972;48.078;11.876;2023-02-15T05:40:10;64.65;;;10.40;;
23588;SDS011;11972;48.078;11.876;2023-02-15T05:44:11;31.88;;;9.88;;
23588;SDS011;11972;48.078;11.876;2023-02-15T05:48:11;41.88;;;11.18;;
23588;SDS011;11972;48.078;11.876;2023-02-15T05:52:12;20.27;;;9.23;;
23588;SDS011;11972;48.078;11.876;2023-02-15T05:56:12;23.25;;;9.35;;
23588;SDS011;11972;48.078;11.876;2023-02-15T06:00:13;57.88;;;9.43;;
23588;SDS011;11972;48.078;11.876;2023-02-15T06:04:14;17.38;;;9.57;;
23588;SDS011;11972;48.078;11.876;2023-02-15T06:08:14;15.70;;;10.30;;
23588;SDS011;11972;48.078;11.876;2023-02-15T06:12:15;33.20;;;10.63;;
23588;SDS011;11972;48.078;11.876;2023-02-15T06:16:15;31.20;;;11.75;;
23588;SDS011;11972;48.078;11.876;2023-02-15T06:20:16;20.13;;;11.40;;
23588;SDS011;11972;48.078;11.876;2023-02-15T06:24:16;20.40;;;10.82;;
23588;SDS011;11972;48.078;11.876;2023-02-15T06:28:16;15.23;;;9.48;;
23588;SDS011;11972;48.078;11.876;2023-02-15T06:32:17;11.65;;;9.13;;
23588;SDS011;11972;48.078;11.876;2023-02-15T06:36:17;15.88;;;9.10;;
23588;SDS011;11972;48.078;11.876;2023-02-15T06:40:17;9.20;;;7.95;;
23588;SDS011;11972;48.078;11.876;2023-02-15T06:44:18;10.70;;;8.00;;
23588;SDS011;11972;48.078;11.876;2023-02-15T06:48:18;12.23;;;8.63;;
23588;SDS011;11972;48.078;11.876;2023-02-15T06:52:19;17.88;;;9.68;;
23588;SDS011;11972;48.078;11.876;2023-02-15T06:56:19;19.75;;;9.07;;
23588;SDS011;11972;48.078;11.876;2023-02-15T07:00:19;22.60;;;9.45;;
23588;SDS011;11972;48.078;11.876;2023-02-15T07:04:22;20.23;;;10.90;;
23588;SDS011;11972;48.078;11.876;2023-02-15T07:08:22;15.73;;;9.55;;
23588;SDS011;11972;48.078;11.876;2023-02-15T07:12:23;13.40;;;9.13;;
23588;SDS011;11972;48.078;11.876;2023-02-15T07:16:42;12.20;;;8.88;;
23588;SDS011;11972;48.078;11.876;2023-02-15T07:20:42;11.73;;;8.55;;
23588;SDS011;11972;48.078;11.876;2023-02-15T07:24:43;10.10;;;7.82;;
23588;SDS011;11972;48.078;11.876;2023-02-15T07:28:43;9.27;;;7.53;;
23588;SDS011;11972;48.078;11.876;2023-02-15T07:32:44;9.85;;;8.40;;
23588;SDS011;11972;48.078;11.876;2023-02-15T07:37:03;12.98;;;7.78;;
23588;SDS011;11972;48.078;11.876;2023-02-15T07:41:11;10.60;;;7.95;;
23588;SDS011;11972;48.078;11.876;2023-02-15T07:45:13;15.65;;;8.27;;
23588;SDS011;11972;48.078;11.876;2023-02-15T07:49:13;22.45;;;7.82;;
23588;SDS011;11972;48.078;11.876;2023-02-15T07:53:14;10.05;;;8.27;;
23588;SDS011;11972;48.078;11.876;2023-02-15T07:57:14;10.93;;;8.52;;
23588;SDS011;11972;48.078;11.876;2023-02-15T08:01:15;10.13;;;8.43;;
23588;SDS011;11972;48.078;11.876;2023-02-15T08:05:15;10.60;;;8.18;;
23588;SDS011;11972;48.078;11.876;2023-02-15T08:09:18;12.30;;;8.60;;
23588;SDS011;11972;48.078;11.876;2023-02-15T08:13:18;13.70;;;8.88;;
23588;SDS011;11972;48.078;11.876;2023-02-15T08:17:18;14.02;;;9.07;;
23588;SDS011;11972;48.078;11.876;2023-02-15T08:21:19;11.75;;;8.80;;
23588;SDS011;11972;48.078;11.876;2023-02-15T08:25:20;11.70;;;9.48;;
23588;SDS011;11972;48.078;11.876;2023-02-15T08:29:22;10.82;;;9.00;;
23588;SDS011;11972;48.078;11.876;2023-02-15T08:33:24;10.25;;;7.93;;
23588;SDS011;11972;48.078;11.876;2023-02-15T08:37:24;9.88;;;8.30;;
23588;SDS011;11972;48.078;11.876;2023-02-15T08:41:26;8.48;;;7.47;;
23588;SDS011;11972;48.078;11.876;2023-02-15T08:45:35;9.05;;;8.15;;
23588;SDS011;11972;48.078;11.876;2023-02-15T08:49:35;8.55;;;7.32;;
23588;SDS011;11972;48.078;11.876;2023-02-15T08:53:36;8.68;;;7.43;;
23588;SDS011;11972;48.078;11.876;2023-02-15T08:57:37;8.13;;;6.82;;
23588;SDS011;11972;48.078;11.876;2023-02-15T09:01:38;8.10;;;7.30;;
23588;SDS011;11972;48.078;11.876;2023-02-15T09:05:39;8.93;;;7.90;;
23588;SDS011;11972;48.078;11.876;2023-02-15T09:09:39;9.05;;;7.70;;
23588;SDS011;11972;48.078;11.876;2023-02-15T09:13:40;9.80;;;8.80;;
23588;SDS011;11972;48.078;11.876;2023-02-15T09:17:40;9.77;;;8.07;;
23588;SDS011;11972;48.078;11.876;2023-02-15T09:21:40;10.93;;;8.88;;
23588;SDS011;11972;48.078;11.876;2023-02-15T09:25:41;9.32;;;7.40;;
23588;SDS011;11972;48.078;11.876;2023-02-15T09:29:42;8.55;;;7.68;;
23588;SDS011;11972;48.078;11.876;2023-02-15T09:33:43;8.98;;;7.68;;
23588;SDS011;11972;48.078;11.876;2023-02-15T09:37:45;8.90;;;8.00;;
23588;SDS011;11972;48.078;11.876;2023-02-15T09:46:08;9.48;;;8.48;;
23588;SDS011;11972;48.078;11.876;2023-02-15T10:12:16;9.90;;;8.75;;
23588;SDS011;11972;48.078;11.876;2023-02-15T10:21:11;14.95;;;10.43;;
23588;SDS011;11972;48.078;11.876;2023-02-15T10:38:50;8.43;;;7.57;;
23588;SDS011;11972;48.078;11.876;2023-02-15T10:43:22;9.32;;;7.90;;
23588;SDS011;11972;48.078;11.876;2023-02-15T10:47:34;9.85;;;8.50;;
23588;SDS011;11972;48.078;11.876;2023-02-15T11:00:23;9.27;;;8.38;;
23588;SDS011;11972;48.078;11.876;2023-02-15T11:08:54;9.68;;;8.68;;
23588;SDS011;11972;48.078;11.876;2023-02-15T11:13:02;10.30;;;9.25;;
23588;SDS011;11972;48.078;11.876;2023-02-15T11:17:10;11.65;;;9.05;;
23588;SDS011;11972;48.078;11.876;2023-02-15T11:25:23;12.55;;;10.30;;
23588;SDS011;11972;48.078;11.876;2023-02-15T11:29:33;11.02;;;9.93;;
23588;SDS011;11972;48.078;11.876;2023-02-15T11:33:38;10.15;;;9.15;;
23588;SDS011;11972;48.078;11.876;2023-02-15T11:41:50;11.55;;;9.68;;
23588;SDS011;11972;48.078;11.876;2023-02-15T11:45:53;10.27;;;9.27;;
23588;SDS011;11972;48.078;11.876;2023-02-15T11:49:54;10.23;;;9.23;;
23588;SDS011;11972;48.078;11.876;2023-02-15T11:53:54;9.95;;;8.95;;
23588;SDS011;11972;48.078;11.876;2023-02-15T11:58:01;10.18;;;9.18;;
23588;SDS011;11972;48.078;11.876;2023-02-15T12:02:18;9.80;;;8.77;;
23588;SDS011;11972;48.078;11.876;2023-02-15T12:06:25;8.82;;;8.02;;
23588;SDS011;11972;48.078;11.876;2023-02-15T12:10:36;8.13;;;7.43;;
23588;SDS011;11972;48.078;11.876;2023-02-15T12:14:49;8.43;;;7.63;;
23588;SDS011;11972;48.078;11.876;2023-02-15T12:18:52;8.82;;;8.02;;
23588;SDS011;11972;48.078;11.876;2023-02-15T12:22:59;8.63;;;7.82;;
23588;SDS011;11972;48.078;11.876;2023-02-15T12:31:09;8.98;;;8.07;;
23588;SDS011;11972;48.078;11.876;2023-02-15T12:35:30;8.25;;;7.38;;
23588;SDS011;11972;48.078;11.876;2023-02-15T12:39:32;7.93;;;7.22;;
23588;SDS011;11972;48.078;11.876;2023-02-15T12:43:34;7.85;;;7.03;;
23588;SDS011;11972;48.078;11.876;2023-02-15T12:47:38;9.45;;;7.80;;
23588;SDS011;11972;48.078;11.876;2023-02-15T12:51:42;7.53;;;6.82;;
23588;SDS011;11972;48.078;11.876;2023-02-15T12:56:04;7.75;;;6.95;;
23588;SDS011;11972;48.078;11.876;2023-02-15T13:00:23;7.97;;;7.18;;
23588;SDS011;11972;48.078;11.876;2023-02-15T13:04:26;8.80;;;7.53;;
23588;SDS011;11972;48.078;11.876;2023-02-15T13:08:30;7.97;;;7.28;;
23588;SDS011;11972;48.078;11.876;2023-02-15T13:12:33;8.15;;;7.45;;
23588;SDS011;11972;48.078;11.876;2023-02-15T13:16:36;8.38;;;7.57;;
23588;SDS011;11972;48.078;11.876;2023-02-15T13:20:39;10.43;;;7.40;;
23588;SDS011;11972;48.078;11.876;2023-02-15T13:28:54;8.00;;;7.22;;
23588;SDS011;11972;48.078;11.876;2023-02-15T13:33:01;7.38;;;6.75;;
23588;SDS011;11972;48.078;11.876;2023-02-15T13:41:31;7.38;;;6.68;;
23588;SDS011;11972;48.078;11.876;2023-02-15T13:45:56;7.45;;;6.75;;
23588;SDS011;11972;48.078;11.876;2023-02-15T13:50:12;7.60;;;6.93;;
23588;SDS011;11972;48.078;11.876;2023-02-15T13:54:55;7.50;;;6.80;;
23588;SDS011;11972;48.078;11.876;2023-02-15T14:16:27;7.13;;;6.47;;
23588;SDS011;11972;48.078;11.876;2023-02-15T14:20:47;9.02;;;6.97;;
23588;SDS011;11972;48.078;11.876;2023-02-15T14:33:07;7.70;;;6.88;;
23588;SDS011;11972;48.078;11.876;2023-02-15T14:37:16;7.95;;;7.15;;
23588;SDS011;11972;48.078;11.876;2023-02-15T14:41:38;8.40;;;7.55;;
23588;SDS011;11972;48.078;11.876;2023-02-15T14:45:50;10.05;;;7.50;;
23588;SDS011;11972;48.078;11.876;2023-02-15T14:49:59;7.95;;;7.25;;
23588;SDS011;11972;48.078;11.876;2023-02-15T14:58:22;8.55;;;7.28;;
23588;SDS011;11972;48.078;11.876;2023-02-15T15:06:39;7.57;;;6.85;;
23588;SDS011;11972;48.078;11.876;2023-02-15T15:10:45;7.55;;;6.85;;
23588;SDS011;11972;48.078;11.876;2023-02-15T15:14:47;10.27;;;6.85;;
23588;SDS011;11972;48.078;11.876;2023-02-15T15:18:48;7.80;;;7.10;;
23588;SDS011;11972;48.078;11.876;2023-02-15T15:22:49;8.38;;;7.45;;
23588;SDS011;11972;48.078;11.876;2023-02-15T15:26:49;8.30;;;7.50;;
23588;SDS011;11972;48.078;11.876;2023-02-15T15:35:58;9.63;;;8.25;;
23588;SDS011;11972;48.078;11.876;2023-02-15T15:48:30;10.93;;;7.63;;
23588;SDS011;11972;48.078;11.876;2023-02-15T15:52:33;9.35;;;8.45;;
23588;SDS011;11972;48.078;11.876;2023-02-15T15:56:38;9.10;;;8.05;;
23588;SDS011;11972;48.078;11.876;2023-02-15T16:00:43;11.23;;;10.18;;
23588;SDS011;11972;48.078;11.876;2023-02-15T16:04:49;9.90;;;8.90;;
23588;SDS011;11972;48.078;11.876;2023-02-15T16:08:49;9.18;;;8.30;;
23588;SDS011;11972;48.078;11.876;2023-02-15T16:12:51;9.98;;;8.88;;
23588;SDS011;11972;48.078;11.876;2023-02-15T16:16:54;9.43;;;8.50;;
23588;SDS011;11972;48.078;11.876;2023-02-15T16:20:57;11.27;;;9.63;;
23588;SDS011;11972;48.078;11.876;2023-02-15T16:29:28;12.70;;;10.80;;
23588;SDS011;11972;48.078;11.876;2023-02-15T16:33:37;13.35;;;10.48;;
23588;SDS011;11972;48.078;11.876;2023-02-15T16:37:38;13.48;;;10.82;;
23588;SDS011;11972;48.078;11.876;2023-02-15T16:41:39;11.93;;;10.38;;
23588;SDS011;11972;48.078;11.876;2023-02-15T16:45:39;9.30;;;8.40;;
23588;SDS011;11972;48.078;11.876;2023-02-15T16:49:40;10.95;;;9.82;;
23588;SDS011;11972;48.078;11.876;2023-02-15T16:53:46;12.23;;;10.63;;
23588;SDS011;11972;48.078;11.876;2023-02-15T16:57:48;12.55;;;10.63;;
23588;SDS011;11972;48.078;11.876;2023-02-15T17:01:50;13.52;;;11.40;;
23588;SDS011;11972;48.078;11.876;2023-02-15T17:05:55;15.50;;;13.00;;
23588;SDS011;11972;48.078;11.876;2023-02-15T17:09:57;18.33;;;15.10;;
23588;SDS011;11972;48.078;11.876;2023-02-15T17:18:06;15.48;;;12.93;;
23588;SDS011;11972;48.078;11.876;2023-02-15T17:22:14;53.25;;;15.18;;
23588;SDS011;11972;48.078;11.876;2023-02-15T17:26:29;16.38;;;13.75;;
23588;SDS011;11972;48.078;11.876;2023-02-15T17:30:32;16.92;;;12.85;;
23588;SDS011;11972;48.078;11.876;2023-02-15T17:39:05;15.57;;;12.20;;
23588;SDS011;11972;48.078;11.876;2023-02-15T17:43:18;16.75;;;13.13;;
23588;SDS011;11972;48.078;11.876;2023-02-15T17:47:22;15.48;;;12.35;;
23588;SDS011;11972;48.078;11.876;2023-02-15T17:51:26;14.60;;;11.57;;
23588;SDS011;11972;48.078;11.876;2023-02-15T17:55:26;13.25;;;10.85;;
23588;SDS011;11972;48.078;11.876;2023-02-15T17:59:41;13.82;;;10.75;;
23588;SDS011;11972;48.078;11.876;2023-02-15T18:08:21;15.13;;;11.52;;
23588;SDS011;11972;48.078;11.876;2023-02-15T18:12:44;18.00;;;14.02;;
23588;SDS011;11972;48.078;11.876;2023-02-15T18:16:45;14.90;;;11.30;;
23588;SDS011;11972;48.078;11.876;2023-02-15T18:20:45;15.05;;;11.48;;
23588;SDS011;11972;48.078;11.876;2023-02-15T18:24:46;20.20;;;13.38;;
23588;SDS011;11972;48.078;11.876;2023-02-15T18:28:48;17.05;;;12.23;;
23588;SDS011;11972;48.078;11.876;2023-02-15T18:32:49;16.25;;;12.63;;
23588;SDS011;11972;48.078;11.876;2023-02-15T18:36:53;15.45;;;11.52;;
23588;SDS011;11972;48.078;11.876;2023-02-15T18:40:54;15.18;;;11.65;;
23588;SDS011;11972;48.078;11.876;2023-02-15T18:44:55;18.23;;;12.38;;
23588;SDS011;11972;48.078;11.876;2023-02-15T18:48:59;15.25;;;11.68;;
23588;SDS011;11972;48.078;11.876;2023-02-15T18:53:01;14.80;;;11.52;;
23588;SDS011;11972;48.078;11.876;2023-02-15T18:57:03;16.75;;;12.90;;
23588;SDS011;11972;48.078;11.876;2023-02-15T19:01:03;16.52;;;12.45;;
23588;SDS011;11972;48.078;11.876;2023-02-15T19:05:04;16.63;;;12.38;;
23588;SDS011;11972;48.078;11.876;2023-02-15T19:09:04;16.20;;;12.18;;
23588;SDS011;11972;48.078;11.876;2023-02-15T19:13:08;17.55;;;12.43;;
23588;SDS011;11972;48.078;11.876;2023-02-15T19:17:12;18.20;;;12.80;;
23588;SDS011;11972;48.078;11.876;2023-02-15T19:21:15;17.45;;;12.63;;
23588;SDS011;11972;48.078;11.876;2023-02-15T19:25:21;21.95;;;12.93;;
23588;SDS011;11972;48.078;11.876;2023-02-15T19:29:27;69.57;;;15.05;;
23588;SDS011;11972;48.078;11.876;2023-02-15T19:33:29;64.82;;;16.05;;
23588;SDS011;11972;48.078;11.876;2023-02-15T19:37:33;88.13;;;15.35;;
23588;SDS011;11972;48.078;11.876;2023-02-15T19:41:37;65.97;;;16.10;;
23588;SDS011;11972;48.078;11.876;2023-02-15T19:45:37;84.25;;;18.25;;
23588;SDS011;11972;48.078;11.876;2023-02-15T19:49:38;73.72;;;16.95;;
23588;SDS011;11972;48.078;11.876;2023-02-15T19:53:38;85.25;;;20.27;;
23588;SDS011;11972;48.078;11.876;2023-02-15T19:57:39;48.00;;;19.65;;
23588;SDS011;11972;48.078;11.876;2023-02-15T20:01:39;42.17;;;21.27;;
23588;SDS011;11972;48.078;11.876;2023-02-15T20:05:40;31.02;;;19.80;;
23588;SDS011;11972;48.078;11.876;2023-02-15T20:09:41;22.25;;;14.73;;
23588;SDS011;11972;48.078;11.876;2023-02-15T20:13:42;24.45;;;16.05;;
23588;SDS011;11972;48.078;11.876;2023-02-15T20:17:42;24.45;;;15.38;;
23588;SDS011;11972;48.078;11.876;2023-02-15T20:21:43;23.75;;;15.90;;
23588;SDS011;11972;48.078;11.876;2023-02-15T20:25:45;21.42;;;14.77;;
23588;SDS011;11972;48.078;11.876;2023-02-15T20:29:46;70.90;;;18.30;;
23588;SDS011;11972;48.078;11.876;2023-02-15T20:33:47;22.67;;;15.43;;
23588;SDS011;11972;48.078;11.876;2023-02-15T20:37:51;24.30;;;16.80;;
23588;SDS011;11972;48.078;11.876;2023-02-15T20:41:53;18.17;;;13.18;;
23588;SDS011;11972;48.078;11.876;2023-02-15T20:45:53;17.60;;;11.85;;
23588;SDS011;11972;48.078;11.876;2023-02-15T20:49:54;14.35;;;10.57;;
23588;SDS011;11972;48.078;11.876;2023-02-15T20:53:54;13.43;;;10.25;;
23588;SDS011;11972;48.078;11.876;2023-02-15T20:57:55;14.80;;;11.30;;
23588;SDS011;11972;48.078;11.876;2023-02-15T21:01:58;15.63;;;11.35;;
23588;SDS011;11972;48.078;11.876;2023-02-15T21:06:14;15.68;;;11.52;;
23588;SDS011;11972;48.078;11.876;2023-02-15T21:10:19;15.95;;;11.55;;
23588;SDS011;11972;48.078;11.876;2023-02-15T21:14:22;15.88;;;11.95;;
23588;SDS011;11972;48.078;11.876;2023-02-15T21:18:26;17.38;;;11.93;;
23588;SDS011;11972;48.078;11.876;2023-02-15T21:22:30;16.00;;;11.43;;
23588;SDS011;11972;48.078;11.876;2023-02-15T21:26:31;15.10;;;11.05;;
23588;SDS011;11972;48.078;11.876;2023-02-15T21:30:31;15.35;;;11.40;;
23588;SDS011;11972;48.078;11.876;2023-02-15T21:34:31;16.63;;;11.25;;
23588;SDS011;11972;48.078;11.876;2023-02-15T21:38:32;14.75;;;11.35;;
23588;SDS011;11972;48.078;11.876;2023-02-15T21:42:32;13.45;;;10.90;;
23588;SDS011;11972;48.078;11.876;2023-02-15T21:46:51;15.05;;;11.40;;
23588;SDS011;11972;48.078;11.876;2023-02-15T21:51:10;14.70;;;11.02;;
23588;SDS011;11972;48.078;11.876;2023-02-15T21:55:29;13.23;;;10.20;;
23588;SDS011;11972;48.078;11.876;2023-02-15T21:59:29;18.63;;;12.48;;
23588;SDS011;11972;48.078;11.876;2023-02-15T22:03:31;15.90;;;11.23;;
23588;SDS011;11972;48.078;11.876;2023-02-15T22:07:33;17.98;;;12.35;;
23588;SDS011;11972;48.078;11.876;2023-02-15T22:11:33;18.70;;;13.20;;
23588;SDS011;11972;48.078;11.876;2023-02-15T22:15:34;17.23;;;11.95;;
23588;SDS011;11972;48.078;11.876;2023-02-15T22:19:36;18.20;;;12.25;;
23588;SDS011;11972;48.078;11.876;2023-02-15T22:23:36;13.02;;;10.10;;
23588;SDS011;11972;48.078;11.876;2023-02-15T22:27:38;16.00;;;10.93;;
23588;SDS011;11972;48.078;11.876;2023-02-15T22:31:39;15.02;;;11.15;;
23588;SDS011;11972;48.078;11.876;2023-02-15T22:35:39;13.82;;;10.98;;
23588;SDS011;11972;48.078;11.876;2023-02-15T22:39:40;18.30;;;12.00;;
23588;SDS011;11972;48.078;11.876;2023-02-15T22:43:40;14.95;;;11.40;;
23588;SDS011;11972;48.078;11.876;2023-02-15T22:47:43;14.73;;;11.52;;
23588;SDS011;11972;48.078;11.876;2023-02-15T22:51:48;15.15;;;12.15;;
23588;SDS011;11972;48.078;11.876;2023-02-15T22:55:49;14.20;;;11.40;;
23588;SDS011;11972;48.078;11.876;2023-02-15T22:59:50;18.88;;;12.18;;
23588;SDS011;11972;48.078;11.876;2023-02-15T23:03:50;20.15;;;13.35;;
23588;SDS011;11972;48.078;11.876;2023-02-15T23:07:50;21.55;;;14.27;;
23588;SDS011;11972;48.078;11.876;2023-02-15T23:11:51;27.45;;;15.32;;
23588;SDS011;11972;48.078;11.876;2023-02-15T23:15:53;24.50;;;15.00;;
23588;SDS011;11972;48.078;11.876;2023-02-15T23:19:56;20.65;;;13.10;;
23588;SDS011;11972;48.078;11.876;2023-02-15T23:23:58;19.25;;;13.10;;
23588;SDS011;11972;48.078;11.876;2023-02-15T23:28:35;18.00;;;12.55;;
23588;SDS011;11972;48.078;11.876;2023-02-15T23:32:35;18.60;;;11.82;;
23588;SDS011;11972;48.078;11.876;2023-02-15T23:36:36;15.73;;;11.80;;
23588;SDS011;11972;48.078;11.876;2023-02-15T23:40:37;18.52;;;12.07;;
23588;SDS011;11972;48.078;11.876;2023-02-15T23:45:04;18.00;;;11.85;;
23588;SDS011;11972;48.078;11.876;2023-02-15T23:49:18;18.55;;;13.35;;
23588;SDS011;11972;48.078;11.876;2023-02-15T23:53:21;17.88;;;12.27;;
23588;SDS011;11972;48.078;11.876;2023-02-15T23:57:22;18.20;;;13.10;;
